Time;durP1;ratioP1;P1;durP2;ratioP2;P2;SDS_P1;SDS_P2;PMS_P1;PMS_P2;Temp;Humidity;BMP_temperature;BMP_pressure;BME280_temperature;BME280_humidity;BME280_pressure;Samples;Min_cycle;Max_cycle;Signal;HPM_P1;HPM_P2
2022/03/22 00:00:30;;;;;;;21.17;15.73;;;;;;;;;;5072923;28;20107;-74
2022/03/22 00:02:57;;;;;;;23.20;15.55;;;;;;;;;;5071592;28;20043;-74
2022/03/22 00:05:23;;;;;;;24.25;16.65;;;;;;;;;;5072482;28;20033;-75
2022/03/22 00:07:50;;;;;;;31.10;20.25;;;;;;;;;;5069943;28;20382;-75
2022/03/22 00:10:17;;;;;;;32.03;20.80;;;;;;;;;;5071546;28;20028;-73
2022/03/22 00:12:43;;;;;;;34.00;21.55;;;;;;;;;;5066365;28;20033;-75
2022/03/22 00:15:10;;;;;;;30.38;19.45;;;;;;;;;;5069621;28;20063;-76
2022/03/22 00:17:37;;;;;;;33.80;20.90;;;;;;;;;;5068300;28;20025;-76
2022/03/22 00:20:04;;;;;;;45.30;28.55;;;;;;;;;;5073682;28;20067;-75
2022/03/22 00:22:31;;;;;;;37.72;24.90;;;;;;;;;;5063581;28;20375;-76
2022/03/22 00:24:58;;;;;;;41.30;27.80;;;;;;;;;;5069040;28;20545;-75
2022/03/22 00:27:24;;;;;;;46.95;27.23;;;;;;;;;;5078508;28;20036;-75
2022/03/22 00:29:50;;;;;;;41.22;27.20;;;;;;;;;;5092961;28;20032;-75
2022/03/22 00:32:17;;;;;;;41.10;24.95;;;;;;;;;;5071691;28;20035;-76
2022/03/22 00:34:46;;;;;;;38.70;23.88;;;;;;;;;;5085904;28;20386;-76
2022/03/22 00:37:14;;;;;;;39.63;23.63;;;;;;;;;;5074962;28;20107;-75
2022/03/22 00:39:41;;;;;;;32.78;21.95;;;;;;;;;;5072485;28;20033;-76
2022/03/22 00:42:08;;;;;;;30.35;18.67;;;;;;;;;;5072676;28;20028;-76
2022/03/22 00:44:36;;;;;;;36.50;23.27;;;;;;;;;;5076319;28;20032;-76
2022/03/22 00:47:03;;;;;;;31.23;21.15;;;;;;;;;;5075745;28;20036;-75
2022/03/22 00:49:33;;;;;;;38.45;22.85;;;;;;;;;;5074993;28;20562;-75
2022/03/22 00:52:01;;;;;;;47.30;28.08;;;;;;;;;;5075748;28;20098;-75
2022/03/22 00:54:28;;;;;;;54.58;31.83;;;;;;;;;;5075430;28;20090;-75
2022/03/22 00:56:54;;;;;;;56.00;31.48;;;;;;;;;;5075752;28;20096;-75
2022/03/22 01:02:06;;;;;;;61.85;34.75;;;;;;;;;;5069925;28;20047;-75
2022/03/22 01:04:32;;;;;;;55.47;31.60;;;;;;;;;;5072382;28;20024;-75
2022/03/22 01:06:58;;;;;;;52.17;30.52;;;;;;;;;;5075738;28;20508;-75
2022/03/22 01:09:25;;;;;;;51.95;31.25;;;;;;;;;;5074731;28;20034;-75
2022/03/22 01:11:51;;;;;;;45.67;30.33;;;;;;;;;;5074218;28;20028;-75
2022/03/22 01:14:17;;;;;;;48.58;31.23;;;;;;;;;;5074668;28;20040;-75
2022/03/22 01:16:44;;;;;;;48.45;30.88;;;;;;;;;;5075469;28;20052;-75
2022/03/22 01:19:10;;;;;;;49.38;32.45;;;;;;;;;;5075682;28;20371;-75
2022/03/22 01:21:37;;;;;;;43.78;27.85;;;;;;;;;;5086464;28;20028;-75
2022/03/22 01:24:06;;;;;;;47.97;29.15;;;;;;;;;;5083932;28;20053;-76
2022/03/22 01:26:34;;;;;;;44.00;29.02;;;;;;;;;;5073412;28;20082;-75
2022/03/22 01:29:00;;;;;;;47.17;30.30;;;;;;;;;;5075684;28;20033;-76
2022/03/22 01:31:26;;;;;;;42.80;28.15;;;;;;;;;;5078082;28;20120;-75
2022/03/22 01:33:52;;;;;;;45.78;29.83;;;;;;;;;;5068084;28;20366;-74
2022/03/22 01:36:19;;;;;;;46.42;30.33;;;;;;;;;;5078536;28;20078;-74
2022/03/22 01:38:46;;;;;;;50.70;32.70;;;;;;;;;;5072569;28;20063;-74
2022/03/22 01:41:13;;;;;;;55.63;34.33;;;;;;;;;;5080449;28;20074;-73
2022/03/22 01:43:40;;;;;;;51.22;33.60;;;;;;;;;;5072545;28;20024;-74
2022/03/22 01:46:06;;;;;;;55.05;33.67;;;;;;;;;;5071811;28;20447;-75
2022/03/22 01:48:32;;;;;;;51.80;33.90;;;;;;;;;;5094634;28;20020;-76
2022/03/22 01:50:58;;;;;;;46.05;31.23;;;;;;;;;;5072484;28;20029;-74
2022/03/22 01:53:25;;;;;;;50.05;31.15;;;;;;;;;;5086910;28;20028;-74
2022/03/22 01:55:52;;;;;;;47.08;32.40;;;;;;;;;;5084433;28;20114;-76
2022/03/22 01:58:18;;;;;;;51.15;33.08;;;;;;;;;;5073447;28;20498;-74
2022/03/22 02:00:44;;;;;;;51.17;34.22;;;;;;;;;;5072259;28;20037;-75
2022/03/22 02:05:58;;;;;;;47.58;31.17;;;;;;;;;;5074584;28;20043;-76
2022/03/22 02:08:29;;;;;;;49.35;29.98;;;;;;;;;;5077394;28;20055;-75
2022/03/22 02:10:56;;;;;;;40.92;26.35;;;;;;;;;;5078385;28;20078;-76
2022/03/22 02:13:22;;;;;;;33.58;22.35;;;;;;;;;;5071620;28;20040;-75
2022/03/22 02:15:51;;;;;;;32.17;21.27;;;;;;;;;;5074857;28;20032;-75
2022/03/22 02:18:18;;;;;;;35.00;22.58;;;;;;;;;;5073592;28;20024;-76
2022/03/22 02:20:45;;;;;;;35.30;22.70;;;;;;;;;;5072115;28;20086;-76
2022/03/22 02:23:19;;;;;;;41.78;25.88;;;;;;;;;;5079481;28;20044;-75
2022/03/22 02:25:49;;;;;;;47.72;28.63;;;;;;;;;;5076055;28;20075;-75
2022/03/22 02:28:15;;;;;;;40.28;25.92;;;;;;;;;;5083955;28;20061;-75
2022/03/22 02:30:43;;;;;;;38.90;26.33;;;;;;;;;;5079616;28;20363;-74
2022/03/22 02:33:10;;;;;;;41.25;27.08;;;;;;;;;;5075238;28;20020;-74
2022/03/22 02:35:36;;;;;;;46.65;28.23;;;;;;;;;;5089992;28;20024;-75
2022/03/22 02:38:04;;;;;;;51.50;29.23;;;;;;;;;;5075380;28;20063;-75
2022/03/22 02:40:30;;;;;;;42.97;26.13;;;;;;;;;;5065759;28;20032;-73
2022/03/22 02:42:59;;;;;;;44.35;28.85;;;;;;;;;;5070208;28;20123;-75
2022/03/22 02:45:26;;;;;;;57.25;30.80;;;;;;;;;;5075878;28;20028;-75
2022/03/22 02:47:53;;;;;;;48.33;29.85;;;;;;;;;;5081477;28;20050;-74
2022/03/22 02:50:21;;;;;;;48.55;28.30;;;;;;;;;;5070952;28;20151;-74
2022/03/22 02:52:47;;;;;;;47.95;28.98;;;;;;;;;;5066955;28;20420;-75
2022/03/22 02:55:14;;;;;;;47.78;27.70;;;;;;;;;;5071077;28;20085;-76
2022/03/22 02:57:42;;;;;;;46.30;29.80;;;;;;;;;;5071215;28;20052;-75
2022/03/22 03:00:10;;;;;;;44.75;28.73;;;;;;;;;;5066602;28;20493;-76
2022/03/22 03:02:48;;;;;;;50.97;31.10;;;;;;;;;;5067994;28;20466;-75
2022/03/22 03:05:15;;;;;;;51.83;31.95;;;;;;;;;;5062356;28;20044;-75
2022/03/22 03:07:41;;;;;;;54.13;31.83;;;;;;;;;;5069964;28;20028;-76
2022/03/22 03:10:08;;;;;;;59.15;35.17;;;;;;;;;;5065311;28;20167;-75
2022/03/22 03:12:34;;;;;;;53.30;33.53;;;;;;;;;;5070864;28;20052;-76
2022/03/22 03:15:01;;;;;;;52.53;31.30;;;;;;;;;;5067732;28;20029;-76
2022/03/22 03:17:27;;;;;;;54.72;31.90;;;;;;;;;;5073582;28;20032;-76
2022/03/22 03:19:53;;;;;;;55.67;33.70;;;;;;;;;;5075056;28;20387;-76
2022/03/22 03:22:20;;;;;;;52.58;33.17;;;;;;;;;;5069977;28;20179;-75
2022/03/22 03:24:46;;;;;;;48.53;31.20;;;;;;;;;;5070977;28;20078;-76
2022/03/22 03:27:12;;;;;;;54.60;33.20;;;;;;;;;;5070456;28;20028;-76
2022/03/22 03:29:39;;;;;;;55.03;35.25;;;;;;;;;;5070358;28;20036;-78
2022/03/22 03:32:05;;;;;;;64.25;39.20;;;;;;;;;;5073805;28;20063;-76
2022/03/22 03:34:31;;;;;;;62.30;38.83;;;;;;;;;;5066969;28;20033;-76
2022/03/22 03:36:58;;;;;;;65.63;36.17;;;;;;;;;;5072273;28;20024;-76
2022/03/22 03:39:43;;;;;;;;;;;;;;;;;;;;;
2022/03/22 03:42:13;;;;;;;61.47;33.92;;;;;;;;;;5079458;28;20020;-81
2022/03/22 03:47:24;;;;;;;63.10;35.50;;;;;;;;;;5071252;28;20042;-76
2022/03/22 03:49:58;;;;;;;59.50;35.83;;;;;;;;;;5066178;28;20029;-75
2022/03/22 03:52:26;;;;;;;60.33;35.90;;;;;;;;;;5067267;28;20467;-76
2022/03/22 03:54:53;;;;;;;66.15;37.28;;;;;;;;;;5077751;28;20085;-76
2022/03/22 03:57:20;;;;;;;66.68;35.83;;;;;;;;;;5078696;28;20050;-78
2022/03/22 03:59:46;;;;;;;62.22;36.20;;;;;;;;;;5074758;28;20475;-76
2022/03/22 04:02:13;;;;;;;60.30;35.20;;;;;;;;;;5073305;28;20060;-75
2022/03/22 04:04:40;;;;;;;63.10;34.20;;;;;;;;;;5070088;28;20029;-76
2022/03/22 04:07:08;;;;;;;65.60;37.30;;;;;;;;;;5067183;28;20165;-77
2022/03/22 04:09:36;;;;;;;67.30;38.78;;;;;;;;;;5068880;28;20382;-77
2022/03/22 04:12:02;;;;;;;67.32;38.42;;;;;;;;;;5075616;28;20028;-77
2022/03/22 04:14:28;;;;;;;68.85;37.53;;;;;;;;;;5073378;28;20028;-77
2022/03/22 04:16:57;;;;;;;60.20;36.42;;;;;;;;;;5068147;28;20024;-77
2022/03/22 04:19:24;;;;;;;69.20;38.33;;;;;;;;;;5078235;28;20039;-76
2022/03/22 04:22:00;;;;;;;58.70;37.88;;;;;;;;;;5075719;28;20290;-77
2022/03/22 04:24:27;;;;;;;58.10;34.80;;;;;;;;;;5070306;28;20056;-78
2022/03/22 04:26:53;;;;;;;57.35;36.88;;;;;;;;;;5075901;28;20474;-77
2022/03/22 04:38:00;;;;;;;49.70;30.58;;;;;;;;;;4966795;28;20541;-75
2022/03/22 04:40:27;;;;;;;55.75;35.22;;;;;;;;;;5055508;28;20051;-76
2022/03/22 04:42:53;;;;;;;48.13;32.70;;;;;;;;;;5084342;28;20032;-77
2022/03/22 04:45:19;;;;;;;46.95;29.08;;;;;;;;;;5070066;28;20044;-77
2022/03/22 04:47:46;;;;;;;49.75;32.13;;;;;;;;;;5070143;28;20525;-77
2022/03/22 04:50:14;;;;;;;44.80;31.33;;;;;;;;;;5070336;28;20036;-76
2022/03/22 04:58:10;;;;;;;52.85;32.55;;;;;;;;;;5073739;28;20517;-76
2022/03/22 05:00:36;;;;;;;41.63;26.23;;;;;;;;;;5079283;28;20493;-77
2022/03/22 05:03:04;;;;;;;42.35;27.05;;;;;;;;;;5075725;28;20052;-76
2022/03/22 05:08:17;;;;;;;43.13;27.90;;;;;;;;;;5073776;28;20046;-77
2022/03/22 05:10:44;;;;;;;41.92;27.42;;;;;;;;;;5072803;28;20032;-76
2022/03/22 05:13:10;;;;;;;38.35;26.55;;;;;;;;;;5072404;28;20374;-76
2022/03/22 05:15:36;;;;;;;40.47;26.67;;;;;;;;;;5066048;28;20036;-76
2022/03/22 05:18:04;;;;;;;36.00;24.52;;;;;;;;;;5066832;28;20086;-76
2022/03/22 05:20:31;;;;;;;39.97;26.90;;;;;;;;;;5070710;28;20668;-76
2022/03/22 05:22:58;;;;;;;38.03;27.00;;;;;;;;;;5076803;28;20068;-75
2022/03/22 05:25:30;;;;;;;40.55;26.88;;;;;;;;;;5076911;28;20036;-76
2022/03/22 05:27:58;;;;;;;37.40;25.63;;;;;;;;;;5053983;28;20043;-75
2022/03/22 05:30:25;;;;;;;34.20;23.02;;;;;;;;;;5074384;28;20032;-76
2022/03/22 05:32:51;;;;;;;31.33;20.63;;;;;;;;;;5064401;28;20028;-77
2022/03/22 05:35:17;;;;;;;33.17;23.15;;;;;;;;;;5068724;28;20047;-77
2022/03/22 05:37:43;;;;;;;32.67;21.48;;;;;;;;;;5068758;28;20726;-77
2022/03/22 05:40:10;;;;;;;43.10;25.52;;;;;;;;;;5065552;28;20067;-76
2022/03/22 05:42:42;;;;;;;40.50;25.58;;;;;;;;;;5064760;28;20042;-77
2022/03/22 05:45:12;;;;;;;43.63;25.27;;;;;;;;;;5040147;28;20410;-78
2022/03/22 05:47:39;;;;;;;43.40;25.98;;;;;;;;;;5059043;28;20036;-77
2022/03/22 05:50:06;;;;;;;38.13;23.70;;;;;;;;;;5061373;28;20475;-79
2022/03/22 05:52:33;;;;;;;43.38;26.45;;;;;;;;;;5064045;28;20051;-76
2022/03/22 05:54:59;;;;;;;38.72;24.60;;;;;;;;;;5068453;28;20510;-76
2022/03/22 05:57:26;;;;;;;38.58;22.65;;;;;;;;;;5065062;28;20078;-76
2022/03/22 05:59:52;;;;;;;39.53;23.10;;;;;;;;;;5068586;28;20039;-77
2022/03/22 06:02:18;;;;;;;35.22;23.98;;;;;;;;;;5048784;28;20478;-77
2022/03/22 06:04:50;;;;;;;39.65;24.23;;;;;;;;;;5072407;28;20032;-77
2022/03/22 06:07:20;;;;;;;40.67;24.85;;;;;;;;;;5066842;28;20505;-76
2022/03/22 06:09:47;;;;;;;42.75;27.10;;;;;;;;;;5064901;28;20546;-76
2022/03/22 06:12:40;;;;;;;54.58;31.90;;;;;;;;;;5062771;28;20051;-77
2022/03/22 06:15:32;;;;;;;55.70;30.15;;;;;;;;;;5016707;28;20071;-79
2022/03/22 06:18:03;;;;;;;46.47;27.30;;;;;;;;;;5056818;28;20341;-77
2022/03/22 06:20:31;;;;;;;49.63;26.73;;;;;;;;;;5063702;28;20115;-78
2022/03/22 06:22:58;;;;;;;46.97;26.88;;;;;;;;;;5067131;28;20037;-77
2022/03/22 06:25:26;;;;;;;48.97;27.90;;;;;;;;;;5061713;28;20044;-77
2022/03/22 06:27:53;;;;;;;54.90;30.67;;;;;;;;;;5073184;28;20032;-78
2022/03/22 06:30:20;;;;;;;59.65;37.17;;;;;;;;;;5069268;28;20195;-77
2022/03/22 06:32:50;;;;;;;58.08;35.25;;;;;;;;;;5066225;28;20072;-77
2022/03/22 06:35:21;;;;;;;57.35;34.28;;;;;;;;;;5063896;28;20032;-77
2022/03/22 06:37:48;;;;;;;49.70;26.90;;;;;;;;;;5068855;28;20426;-78
2022/03/22 06:40:15;;;;;;;42.70;23.92;;;;;;;;;;5068554;28;20159;-78
2022/03/22 06:42:42;;;;;;;50.10;26.55;;;;;;;;;;5067714;28;20033;-77
2022/03/22 06:45:10;;;;;;;54.17;29.02;;;;;;;;;;5048605;28;20060;-77
2022/03/22 06:47:37;;;;;;;54.95;30.13;;;;;;;;;;5069067;28;20287;-78
2022/03/22 06:50:03;;;;;;;61.42;35.13;;;;;;;;;;5075648;28;20025;-77
2022/03/22 06:52:30;;;;;;;59.33;35.10;;;;;;;;;;5068939;28;20063;-78
2022/03/22 06:54:56;;;;;;;60.50;35.55;;;;;;;;;;5065803;28;20032;-78
2022/03/22 06:57:22;;;;;;;63.60;37.45;;;;;;;;;;5064983;28;20036;-77
2022/03/22 06:59:49;;;;;;;59.17;35.67;;;;;;;;;;5069351;28;20152;-78
2022/03/22 07:02:17;;;;;;;60.38;35.20;;;;;;;;;;5065365;28;20380;-77
2022/03/22 07:04:44;;;;;;;58.80;36.53;;;;;;;;;;5068278;28;20043;-77
2022/03/22 07:07:15;;;;;;;58.35;34.28;;;;;;;;;;5065528;28;20090;-77
2022/03/22 07:09:42;;;;;;;61.33;38.88;;;;;;;;;;5066442;28;20374;-78
2022/03/22 07:12:08;;;;;;;69.53;45.45;;;;;;;;;;5068592;28;20021;-78
2022/03/22 07:14:36;;;;;;;62.58;42.88;;;;;;;;;;5066609;28;20033;-79
2022/03/22 07:17:02;;;;;;;69.07;45.38;;;;;;;;;;5066834;28;20036;-77
2022/03/22 07:19:28;;;;;;;66.40;45.15;;;;;;;;;;5065919;28;20130;-77
2022/03/22 07:21:57;;;;;;;65.93;44.03;;;;;;;;;;5064754;28;20039;-79
2022/03/22 07:24:23;;;;;;;64.55;42.95;;;;;;;;;;5064123;28;20050;-77
2022/03/22 07:26:49;;;;;;;57.72;39.40;;;;;;;;;;5066388;28;20028;-76
2022/03/22 07:29:16;;;;;;;58.60;39.25;;;;;;;;;;5066651;28;20047;-77
2022/03/22 07:31:42;;;;;;;54.78;35.08;;;;;;;;;;5068279;28;20027;-78
2022/03/22 07:34:11;;;;;;;49.13;34.42;;;;;;;;;;5075489;28;20047;-78
2022/03/22 07:36:39;;;;;;;47.42;33.00;;;;;;;;;;5070133;28;20028;-77
2022/03/22 07:39:06;;;;;;;47.25;33.17;;;;;;;;;;5066602;28;20158;-76
2022/03/22 07:41:33;;;;;;;48.30;33.72;;;;;;;;;;5066534;28;20028;-76
2022/03/22 07:44:03;;;;;;;46.92;31.85;;;;;;;;;;5069903;28;20032;-78
2022/03/22 07:46:29;;;;;;;49.15;36.15;;;;;;;;;;5064575;28;20127;-78
2022/03/22 07:54:25;;;;;;;45.47;33.15;;;;;;;;;;5073805;28;20438;-76
2022/03/22 07:56:51;;;;;;;46.72;30.55;;;;;;;;;;5048123;28;20040;-77
2022/03/22 07:59:18;;;;;;;42.83;31.15;;;;;;;;;;5069717;28;20032;-76
2022/03/22 08:01:44;;;;;;;42.72;28.30;;;;;;;;;;5072431;28;20043;-77
2022/03/22 08:04:10;;;;;;;37.50;27.20;;;;;;;;;;5069923;28;20036;-77
2022/03/22 08:06:37;;;;;;;39.90;28.83;;;;;;;;;;5071995;28;20740;-78
2022/03/22 08:09:03;;;;;;;40.20;27.92;;;;;;;;;;5042808;28;20122;-77
2022/03/22 08:11:33;;;;;;;35.25;25.00;;;;;;;;;;5073334;28;20024;-78
2022/03/22 08:14:00;;;;;;;36.35;24.90;;;;;;;;;;5077239;28;20027;-77
2022/03/22 08:16:27;;;;;;;34.97;25.55;;;;;;;;;;5062582;28;20029;-77
2022/03/22 08:18:53;;;;;;;36.70;25.88;;;;;;;;;;5068752;28;21391;-80
2022/03/22 08:21:20;;;;;;;36.38;25.77;;;;;;;;;;5069875;28;20035;-78
2022/03/22 08:23:46;;;;;;;35.75;26.33;;;;;;;;;;5070172;28;20086;-78
2022/03/22 08:26:13;;;;;;;34.50;24.27;;;;;;;;;;5062439;28;20070;-77
2022/03/22 08:28:40;;;;;;;30.67;22.67;;;;;;;;;;5064883;28;20080;-77
2022/03/22 08:31:06;;;;;;;32.63;22.65;;;;;;;;;;5068865;28;20024;-76
2022/03/22 08:33:32;;;;;;;32.15;21.20;;;;;;;;;;5072035;28;20032;-78
2022/03/22 08:35:59;;;;;;;31.23;21.73;;;;;;;;;;5058305;28;20405;-78
2022/03/22 08:38:28;;;;;;;29.08;21.63;;;;;;;;;;5071055;28;20062;-77
2022/03/22 08:40:56;;;;;;;28.23;20.40;;;;;;;;;;5065559;28;20036;-79
2022/03/22 08:43:25;;;;;;;27.20;20.38;;;;;;;;;;5070403;28;20040;-77
2022/03/22 08:45:56;;;;;;;27.52;17.92;;;;;;;;;;5073024;28;20048;-78
2022/03/22 08:48:22;;;;;;;24.48;19.45;;;;;;;;;;5049744;28;20198;-79
2022/03/22 08:50:50;;;;;;;24.92;19.23;;;;;;;;;;5070318;28;20647;-78
2022/03/22 08:53:17;;;;;;;23.55;17.17;;;;;;;;;;5048477;28;20469;-79
2022/03/22 08:55:44;;;;;;;23.33;17.20;;;;;;;;;;5067014;28;20045;-78
2022/03/22 08:58:10;;;;;;;25.27;18.10;;;;;;;;;;5067049;28;20033;-77
2022/03/22 09:00:37;;;;;;;24.73;18.10;;;;;;;;;;5071842;28;20024;-78
2022/03/22 09:03:05;;;;;;;25.13;17.95;;;;;;;;;;5048798;28;20070;-77
2022/03/22 09:08:23;;;;;;;25.25;16.77;;;;;;;;;;5069741;28;20125;-78
2022/03/22 09:10:51;;;;;;;26.60;15.70;;;;;;;;;;5067205;28;20120;-77
2022/03/22 09:13:18;;;;;;;16.52;13.60;;;;;;;;;;5076603;28;20039;-77
2022/03/22 09:15:46;;;;;;;17.85;13.38;;;;;;;;;;5071947;28;20028;-77
2022/03/22 09:18:21;;;;;;;19.63;14.55;;;;;;;;;;5071405;28;20466;-77
2022/03/22 09:20:48;;;;;;;21.15;15.52;;;;;;;;;;5073595;28;20033;-76
2022/03/22 09:23:15;;;;;;;17.58;13.48;;;;;;;;;;5079919;28;20421;-76
2022/03/22 09:25:43;;;;;;;17.88;13.45;;;;;;;;;;5054462;28;20097;-77
2022/03/22 09:28:10;;;;;;;20.35;15.80;;;;;;;;;;5076623;28;20098;-77
2022/03/22 09:30:38;;;;;;;20.17;14.18;;;;;;;;;;5051999;28;20036;-77
2022/03/22 09:33:05;;;;;;;20.88;13.82;;;;;;;;;;5069472;28;20063;-76
2022/03/22 09:35:31;;;;;;;19.08;13.48;;;;;;;;;;5071914;28;20073;-79
2022/03/22 09:37:59;;;;;;;17.42;13.05;;;;;;;;;;5047674;28;20025;-77
2022/03/22 09:41:00;;;;;;;12.98;10.18;;;;;;;;;;5067747;28;20481;-76
2022/03/22 09:43:28;;;;;;;14.25;10.88;;;;;;;;;;5063241;28;20506;-78
2022/03/22 09:45:57;;;;;;;16.27;11.65;;;;;;;;;;5074749;28;20552;-77
2022/03/22 09:48:24;;;;;;;15.68;12.02;;;;;;;;;;5071004;28;20560;-76
2022/03/22 09:53:35;;;;;;;17.23;12.82;;;;;;;;;;5070726;28;20046;-76
2022/03/22 09:56:04;;;;;;;15.73;11.45;;;;;;;;;;5066892;28;20119;-76
2022/03/22 09:58:30;;;;;;;19.70;12.77;;;;;;;;;;5073140;28;20035;-77
2022/03/22 10:00:57;;;;;;;15.50;11.02;;;;;;;;;;5071209;28;20033;-78
2022/03/22 10:03:23;;;;;;;18.38;11.98;;;;;;;;;;5068505;28;20107;-77
2022/03/22 10:05:59;;;;;;;16.52;12.50;;;;;;;;;;5070197;28;20637;-77
2022/03/22 10:08:26;;;;;;;19.08;12.90;;;;;;;;;;5072024;28;20107;-77
2022/03/22 10:10:53;;;;;;;18.80;12.07;;;;;;;;;;5067084;28;20047;-78
2022/03/22 10:13:19;;;;;;;15.57;11.73;;;;;;;;;;5063124;28;20390;-77
2022/03/22 10:15:46;;;;;;;19.05;12.23;;;;;;;;;;5067288;28;20478;-78
2022/03/22 10:18:13;;;;;;;19.98;12.85;;;;;;;;;;5068468;28;20032;-77
2022/03/22 10:20:40;;;;;;;19.50;13.55;;;;;;;;;;5066452;28;20463;-78
2022/03/22 10:23:07;;;;;;;20.42;12.73;;;;;;;;;;5067559;28;20410;-77
2022/03/22 10:25:35;;;;;;;19.38;12.95;;;;;;;;;;5067115;28;20043;-77
2022/03/22 10:28:02;;;;;;;20.35;13.57;;;;;;;;;;5065977;28;20391;-76
2022/03/22 10:30:50;;;;;;;17.90;12.73;;;;;;;;;;5066444;28;20089;-78
2022/03/22 10:33:17;;;;;;;17.92;12.80;;;;;;;;;;5070815;28;20530;-77
2022/03/22 10:35:46;;;;;;;23.13;15.05;;;;;;;;;;5045978;28;20152;-77
2022/03/22 10:38:15;;;;;;;18.73;12.52;;;;;;;;;;5070528;28;20058;-77
2022/03/22 10:40:45;;;;;;;23.70;12.68;;;;;;;;;;5070277;28;20719;-77
2022/03/22 10:43:12;;;;;;;27.13;14.75;;;;;;;;;;5070164;28;20055;-77
2022/03/22 10:45:45;;;;;;;23.05;15.95;;;;;;;;;;5072935;28;20024;-78
2022/03/22 10:48:15;;;;;;;33.65;16.55;;;;;;;;;;5069192;28;20108;-76
2022/03/22 10:50:42;;;;;;;27.08;14.80;;;;;;;;;;5069252;28;20079;-77
2022/03/22 10:53:08;;;;;;;27.38;15.68;;;;;;;;;;5065903;28;20400;-78
2022/03/22 10:55:34;;;;;;;26.77;15.23;;;;;;;;;;5069205;28;20064;-77
2022/03/22 10:58:04;;;;;;;25.55;16.23;;;;;;;;;;5071163;28;20024;-78
2022/03/22 11:00:30;;;;;;;21.88;15.45;;;;;;;;;;5064836;28;20039;-78
2022/03/22 11:02:57;;;;;;;23.30;15.30;;;;;;;;;;5068218;28;20532;-76
2022/03/22 11:05:26;;;;;;;27.73;18.30;;;;;;;;;;5071101;28;20089;-79
2022/03/22 11:07:56;;;;;;;27.40;19.05;;;;;;;;;;5066547;28;20074;-78
2022/03/22 11:10:29;;;;;;;22.67;15.05;;;;;;;;;;5045783;28;20489;-79
2022/03/22 11:12:59;;;;;;;23.08;11.95;;;;;;;;;;5063318;28;20091;-79
2022/03/22 11:15:34;;;;;;;20.63;11.63;;;;;;;;;;5068645;28;20441;-79
2022/03/22 11:18:11;;;;;;;18.15;10.93;;;;;;;;;;5069396;28;20029;-78
2022/03/22 11:20:48;;;;;;;16.35;10.70;;;;;;;;;;5067206;28;20126;-78
2022/03/22 11:23:47;;;;;;;19.15;11.02;;;;;;;;;;5062026;28;20156;-79
2022/03/22 11:26:23;;;;;;;20.52;13.02;;;;;;;;;;5021506;28;20140;-78
2022/03/22 11:28:50;;;;;;;19.45;12.75;;;;;;;;;;5043401;28;20557;-77
2022/03/22 11:31:26;;;;;;;23.98;15.10;;;;;;;;;;5065234;28;20040;-76
2022/03/22 11:34:12;;;;;;;26.80;15.55;;;;;;;;;;5062033;28;20397;-77
2022/03/22 11:36:41;;;;;;;24.90;15.73;;;;;;;;;;5064588;28;20092;-77
2022/03/22 11:39:07;;;;;;;23.13;13.35;;;;;;;;;;5064729;28;20036;-77
2022/03/22 11:44:37;;;;;;;24.48;14.82;;;;;;;;;;5063322;28;20035;-77
2022/03/22 11:47:15;;;;;;;25.30;14.25;;;;;;;;;;5064992;28;20024;-78
2022/03/22 11:49:52;;;;;;;22.85;14.23;;;;;;;;;;5054153;28;20040;-76
2022/03/22 11:52:19;;;;;;;22.52;15.73;;;;;;;;;;5052003;28;20405;-77
2022/03/22 11:54:55;;;;;;;27.48;16.42;;;;;;;;;;5062646;28;20466;-76
2022/03/22 11:57:21;;;;;;;23.83;13.10;;;;;;;;;;5064353;28;20032;-78
2022/03/22 11:59:48;;;;;;;20.83;13.23;;;;;;;;;;5046495;28;20571;-77
2022/03/22 12:02:18;;;;;;;23.73;14.27;;;;;;;;;;5063328;28;20051;-77
2022/03/22 12:04:52;;;;;;;18.83;11.23;;;;;;;;;;5063846;28;20029;-76
2022/03/22 12:07:39;;;;;;;15.90;10.98;;;;;;;;;;5064592;28;20036;-76
2022/03/22 12:10:07;;;;;;;19.70;11.68;;;;;;;;;;5064777;28;20035;-77
2022/03/22 12:12:34;;;;;;;21.10;13.15;;;;;;;;;;5064566;28;20028;-77
2022/03/22 12:15:04;;;;;;;23.98;13.88;;;;;;;;;;5064998;28;20217;-75
2022/03/22 12:17:30;;;;;;;25.92;15.68;;;;;;;;;;5073335;28;20370;-78
2022/03/22 12:20:16;;;;;;;21.02;15.25;;;;;;;;;;5070817;28;20127;-77
2022/03/22 12:23:03;;;;;;;24.70;15.32;;;;;;;;;;5070688;28;20410;-77
2022/03/22 12:25:38;;;;;;;28.80;19.30;;;;;;;;;;5075691;28;20033;-78
2022/03/22 12:28:14;;;;;;;37.63;27.73;;;;;;;;;;5048878;28;20095;-78
2022/03/22 12:30:58;;;;;;;34.33;23.25;;;;;;;;;;5071742;28;20494;-78
2022/03/22 12:33:27;;;;;;;57.75;48.47;;;;;;;;;;5068350;28;20115;-78
2022/03/22 12:35:53;;;;;;;196.07;141.50;;;;;;;;;;5070078;28;20675;-77
2022/03/22 12:38:23;;;;;;;29.92;23.30;;;;;;;;;;5064583;28;20209;-78
2022/03/22 12:40:52;;;;;;;36.33;24.40;;;;;;;;;;5076697;28;20032;-77
2022/03/22 12:43:19;;;;;;;38.70;25.55;;;;;;;;;;5066426;28;20124;-77
2022/03/22 12:45:47;;;;;;;36.22;26.00;;;;;;;;;;5074249;28;20039;-78
2022/03/22 12:48:20;;;;;;;37.33;26.23;;;;;;;;;;5078848;28;20028;-78
2022/03/22 12:50:46;;;;;;;35.88;24.33;;;;;;;;;;5073397;28;20031;-78
2022/03/22 12:53:13;;;;;;;37.45;25.63;;;;;;;;;;5068005;28;20029;-78
2022/03/22 12:55:42;;;;;;;38.22;26.15;;;;;;;;;;5074775;28;20016;-78
2022/03/22 12:58:08;;;;;;;35.38;24.00;;;;;;;;;;5076323;28;20517;-78
2022/03/22 13:00:39;;;;;;;30.88;21.98;;;;;;;;;;5076014;28;20381;-77
2022/03/22 13:03:09;;;;;;;34.70;24.40;;;;;;;;;;5075955;28;20063;-77
2022/03/22 13:05:43;;;;;;;33.42;22.80;;;;;;;;;;5055895;28;20359;-77
2022/03/22 13:08:19;;;;;;;35.88;23.75;;;;;;;;;;5077715;28;20032;-77
2022/03/22 13:16:20;;;;;;;31.05;22.98;;;;;;;;;;5079805;28;20035;-77
2022/03/22 13:18:54;;;;;;;29.40;21.13;;;;;;;;;;5077012;28;20028;-77
2022/03/22 13:21:27;;;;;;;33.67;20.08;;;;;;;;;;5077818;28;20474;-77
2022/03/22 13:24:04;;;;;;;27.75;20.05;;;;;;;;;;5067787;28;20049;-77
2022/03/22 13:26:32;;;;;;;22.95;18.13;;;;;;;;;;5067543;28;20040;-77
2022/03/22 13:28:58;;;;;;;28.35;20.50;;;;;;;;;;5074698;28;20024;-77
2022/03/22 13:31:48;;;;;;;25.58;17.50;;;;;;;;;;5059504;28;20134;-77
2022/03/22 13:34:23;;;;;;;31.42;21.13;;;;;;;;;;5068830;28;20048;-77
2022/03/22 13:37:12;;;;;;;33.00;21.75;;;;;;;;;;5077342;28;20060;-78
2022/03/22 13:39:42;;;;;;;36.15;23.58;;;;;;;;;;5083671;28;20032;-78
2022/03/22 13:42:22;;;;;;;30.98;22.05;;;;;;;;;;5075424;28;20041;-76
2022/03/22 13:44:48;;;;;;;35.40;22.40;;;;;;;;;;5076458;28;20481;-78
2022/03/22 13:47:29;;;;;;;24.92;18.23;;;;;;;;;;5068973;28;20067;-77
2022/03/22 13:49:55;;;;;;;31.63;18.58;;;;;;;;;;5082120;28;20035;-77
2022/03/22 13:52:26;;;;;;;29.02;19.30;;;;;;;;;;5068095;28;20039;-77
2022/03/22 13:54:53;;;;;;;35.00;24.75;;;;;;;;;;5073632;28;20024;-76
2022/03/22 13:57:21;;;;;;;38.10;26.20;;;;;;;;;;5080221;28;20016;-77
2022/03/22 13:59:48;;;;;;;45.08;27.88;;;;;;;;;;5072966;28;20056;-75
2022/03/22 14:02:17;;;;;;;36.58;26.65;;;;;;;;;;5073293;28;20040;-75
2022/03/22 14:04:44;;;;;;;38.20;26.98;;;;;;;;;;5079446;28;20491;-75
2022/03/22 14:07:10;;;;;;;37.25;26.10;;;;;;;;;;5079670;28;20039;-75
2022/03/22 14:09:36;;;;;;;35.22;25.27;;;;;;;;;;5074375;28;20024;-75
2022/03/22 14:12:04;;;;;;;32.15;23.38;;;;;;;;;;5078274;28;20039;-75
2022/03/22 14:14:30;;;;;;;35.38;21.85;;;;;;;;;;5081152;28;20154;-76
2022/03/22 14:16:57;;;;;;;27.30;21.98;;;;;;;;;;5076755;28;20149;-75
2022/03/22 14:19:23;;;;;;;31.25;22.15;;;;;;;;;;5073702;28;20032;-75
2022/03/22 14:21:49;;;;;;;30.88;23.95;;;;;;;;;;5077346;28;20029;-75
2022/03/22 14:24:16;;;;;;;30.38;20.98;;;;;;;;;;5073460;28;20044;-74
2022/03/22 14:26:43;;;;;;;30.23;20.33;;;;;;;;;;5071574;28;20425;-75
2022/03/22 14:29:09;;;;;;;27.35;19.45;;;;;;;;;;5072473;28;20024;-75
2022/03/22 14:31:35;;;;;;;26.13;19.67;;;;;;;;;;5073244;28;20050;-75
2022/03/22 14:34:04;;;;;;;38.15;25.98;;;;;;;;;;5072009;28;20078;-76
2022/03/22 14:36:30;;;;;;;28.90;20.80;;;;;;;;;;5072055;28;20099;-77
2022/03/22 14:38:57;;;;;;;29.15;17.80;;;;;;;;;;5068719;28;20028;-77
2022/03/22 14:41:26;;;;;;;26.52;17.65;;;;;;;;;;5069668;28;20055;-77
2022/03/22 14:43:54;;;;;;;29.17;19.75;;;;;;;;;;5067206;28;20052;-76
2022/03/22 14:46:21;;;;;;;32.20;20.83;;;;;;;;;;5070395;28;20028;-76
2022/03/22 14:48:50;;;;;;;33.20;24.48;;;;;;;;;;5069956;28;20032;-77
2022/03/22 14:54:02;;;;;;;34.13;23.98;;;;;;;;;;5071344;28;20068;-75
2022/03/22 14:54:09;;;;;;;35.35;25.52;;;;;;;;;;5073479;28;20067;-74
2022/03/22 14:59:23;;;;;;;35.72;25.85;;;;;;;;;;5072206;28;20040;-77
2022/03/22 15:01:50;;;;;;;30.83;22.90;;;;;;;;;;5078561;28;20024;-75
2022/03/22 15:04:16;;;;;;;31.52;24.63;;;;;;;;;;5072573;28;20024;-77
2022/03/22 15:06:43;;;;;;;36.08;25.55;;;;;;;;;;5054276;28;20025;-77
2022/03/22 15:09:12;;;;;;;39.50;27.98;;;;;;;;;;5079103;28;20025;-76
2022/03/22 15:11:39;;;;;;;40.28;27.10;;;;;;;;;;5071588;28;20056;-76
2022/03/22 15:14:09;;;;;;;41.33;28.48;;;;;;;;;;5074386;28;20529;-76